Time;durP1;ratioP1;P1;durP2;ratioP2;P2;SDS_P1;SDS_P2;PMS_P1;PMS_P2;Temp;Humidity;BMP_temperature;BMP_pressure;BME280_temperature;BME280_humidity;BME280_pressure;Samples;Min_cycle;Max_cycle;Signal;HPM_P1;HPM_P2
2022/04/10 00:01:34;;;;;;;9.73;2.08;;;;;;;;;;5068040;28;20057;-67
2022/04/10 00:04:01;;;;;;;8.55;1.80;;;;;;;;;;5067800;28;20052;-67
2022/04/10 00:06:27;;;;;;;7.13;1.67;;;;;;;;;;5067994;28;20607;-67
2022/04/10 00:08:54;;;;;;;8.50;1.73;;;;;;;;;;5068153;28;20055;-67
2022/04/10 00:11:20;;;;;;;10.90;2.25;;;;;;;;;;5067242;28;20059;-68
2022/04/10 00:13:46;;;;;;;12.15;2.03;;;;;;;;;;5067390;28;20053;-67
2022/04/10 00:16:13;;;;;;;7.05;2.10;;;;;;;;;;5067395;28;20151;-67
2022/04/10 00:18:39;;;;;;;12.30;2.22;;;;;;;;;;5066513;28;20060;-67
2022/04/10 00:21:07;;;;;;;9.52;2.10;;;;;;;;;;5067694;28;20048;-67
2022/04/10 00:23:34;;;;;;;10.77;2.40;;;;;;;;;;5067615;28;20110;-67
2022/04/10 00:26:00;;;;;;;7.90;1.85;;;;;;;;;;5068042;28;20435;-67
2022/04/10 00:28:26;;;;;;;12.30;2.03;;;;;;;;;;5066943;28;20055;-67
2022/04/10 00:30:52;;;;;;;10.15;1.98;;;;;;;;;;5067449;28;20475;-67
2022/04/10 00:33:19;;;;;;;12.95;2.35;;;;;;;;;;5067393;28;20061;-67
2022/04/10 00:35:46;;;;;;;14.52;2.42;;;;;;;;;;5067669;28;20140;-67
2022/04/10 00:38:12;;;;;;;7.03;1.67;;;;;;;;;;5067661;28;20056;-67
2022/04/10 00:40:38;;;;;;;11.30;2.03;;;;;;;;;;5066796;28;20087;-67
2022/04/10 00:43:05;;;;;;;11.02;1.92;;;;;;;;;;5066780;28;20179;-67
2022/04/10 00:45:31;;;;;;;10.32;2.00;;;;;;;;;;5066926;28;20061;-67
2022/04/10 00:47:57;;;;;;;7.05;1.60;;;;;;;;;;5067189;28;20141;-67
2022/04/10 00:50:24;;;;;;;9.70;1.65;;;;;;;;;;5067373;28;20063;-68
2022/04/10 00:52:51;;;;;;;10.35;1.83;;;;;;;;;;5067703;28;20590;-68
2022/04/10 00:55:18;;;;;;;9.77;2.00;;;;;;;;;;5067072;28;20075;-67
2022/04/10 00:57:45;;;;;;;7.90;1.65;;;;;;;;;;5067117;28;20140;-67
2022/04/10 01:00:13;;;;;;;11.95;2.15;;;;;;;;;;5066541;28;20619;-68
2022/04/10 01:02:39;;;;;;;9.55;1.98;;;;;;;;;;5066905;28;20152;-67
2022/04/10 01:05:06;;;;;;;6.30;2.05;;;;;;;;;;5066750;28;20060;-67
2022/04/10 01:07:33;;;;;;;7.50;1.95;;;;;;;;;;5066190;28;20099;-67
2022/04/10 01:09:59;;;;;;;10.45;1.88;;;;;;;;;;5067215;28;20148;-67
2022/04/10 01:12:25;;;;;;;10.13;1.80;;;;;;;;;;5049001;28;20445;-67
2022/04/10 01:14:51;;;;;;;9.65;1.95;;;;;;;;;;5066262;28;20088;-67
2022/04/10 01:17:18;;;;;;;13.07;1.90;;;;;;;;;;5066094;28;20061;-67
2022/04/10 01:19:45;;;;;;;12.20;2.33;;;;;;;;;;5067199;28;20052;-67
2022/04/10 01:22:30;;;;;;;7.35;1.90;;;;;;;;;;5066808;28;20155;-67
2022/04/10 01:24:56;;;;;;;6.05;1.67;;;;;;;;;;5066475;28;21775;-67
2022/04/10 01:27:23;;;;;;;6.10;1.63;;;;;;;;;;5066620;28;20048;-67
2022/04/10 01:29:49;;;;;;;9.20;2.00;;;;;;;;;;5066594;28;20059;-67
2022/04/10 01:32:15;;;;;;;9.55;2.22;;;;;;;;;;5066257;28;20107;-68
2022/04/10 01:34:42;;;;;;;9.52;1.85;;;;;;;;;;5066685;28;20063;-67
2022/04/10 01:37:09;;;;;;;10.43;2.53;;;;;;;;;;5066827;28;20140;-67
2022/04/10 01:39:35;;;;;;;9.80;2.35;;;;;;;;;;5066558;28;20049;-68
2022/04/10 01:42:01;;;;;;;10.57;2.10;;;;;;;;;;5066751;28;20614;-67
2022/04/10 01:44:27;;;;;;;9.68;1.80;;;;;;;;;;5066225;28;20104;-68
2022/04/10 01:46:54;;;;;;;10.00;2.00;;;;;;;;;;5065976;28;20607;-67
2022/04/10 01:49:20;;;;;;;12.85;2.65;;;;;;;;;;5066458;28;20151;-68
2022/04/10 01:51:46;;;;;;;11.40;3.17;;;;;;;;;;5067630;28;20143;-67
2022/04/10 01:54:13;;;;;;;13.63;2.92;;;;;;;;;;5070060;28;20148;-67
2022/04/10 01:56:39;;;;;;;11.18;2.03;;;;;;;;;;5068665;28;20048;-67
2022/04/10 01:59:05;;;;;;;12.45;2.40;;;;;;;;;;5069716;28;20065;-67
2022/04/10 02:01:32;;;;;;;7.55;2.22;;;;;;;;;;5070332;28;20045;-67
2022/04/10 02:03:58;;;;;;;10.98;1.77;;;;;;;;;;5070000;28;20057;-67
2022/04/10 02:06:25;;;;;;;12.25;2.50;;;;;;;;;;5069398;28;20107;-67
2022/04/10 02:08:51;;;;;;;9.90;2.20;;;;;;;;;;5069586;28;20076;-67
2022/04/10 02:11:18;;;;;;;10.07;1.85;;;;;;;;;;5051768;28;20064;-67
2022/04/10 02:13:45;;;;;;;9.40;2.15;;;;;;;;;;5069461;28;20060;-67
2022/04/10 02:16:13;;;;;;;19.08;2.33;;;;;;;;;;5069349;28;20143;-67
2022/04/10 02:18:39;;;;;;;10.98;2.15;;;;;;;;;;5069296;28;20558;-67
2022/04/10 02:21:06;;;;;;;17.17;2.22;;;;;;;;;;5068415;28;20517;-67
2022/04/10 02:23:32;;;;;;;10.88;2.17;;;;;;;;;;5069971;28;20053;-67
2022/04/10 02:25:58;;;;;;;8.25;2.45;;;;;;;;;;5069576;28;20052;-67
2022/04/10 02:28:25;;;;;;;9.52;1.95;;;;;;;;;;5068927;28;20059;-67
2022/04/10 02:30:51;;;;;;;7.55;1.90;;;;;;;;;;5068855;28;20526;-67
2022/04/10 02:33:18;;;;;;;6.97;2.30;;;;;;;;;;5068837;28;20053;-68
2022/04/10 02:35:44;;;;;;;16.50;2.45;;;;;;;;;;5068982;28;20135;-67
2022/04/10 02:38:11;;;;;;;10.77;2.20;;;;;;;;;;5069251;28;20064;-68
2022/04/10 02:40:37;;;;;;;11.10;2.13;;;;;;;;;;5069736;28;20049;-67
2022/04/10 02:43:03;;;;;;;7.40;2.28;;;;;;;;;;5069064;28;20419;-67
2022/04/10 02:45:30;;;;;;;9.25;2.25;;;;;;;;;;5068782;28;20055;-67
2022/04/10 02:47:56;;;;;;;10.75;3.47;;;;;;;;;;5069004;28;20057;-68
2022/04/10 02:50:22;;;;;;;10.32;2.33;;;;;;;;;;5068547;28;20873;-68
2022/04/10 02:52:50;;;;;;;11.70;2.50;;;;;;;;;;5068946;28;20171;-68
2022/04/10 02:55:16;;;;;;;10.45;2.70;;;;;;;;;;5068720;28;20622;-67
2022/04/10 02:57:42;;;;;;;8.82;1.95;;;;;;;;;;5068841;28;20434;-67
2022/04/10 03:00:09;;;;;;;11.30;2.17;;;;;;;;;;5069066;28;20200;-67
2022/04/10 03:02:38;;;;;;;7.38;2.30;;;;;;;;;;5068856;28;20045;-67
2022/04/10 03:05:04;;;;;;;9.48;2.05;;;;;;;;;;5068495;28;20053;-67
2022/04/10 03:07:31;;;;;;;7.00;2.40;;;;;;;;;;5068681;28;20048;-68
2022/04/10 03:09:57;;;;;;;12.45;2.47;;;;;;;;;;5068629;28;20115;-67
2022/04/10 03:12:23;;;;;;;10.13;1.92;;;;;;;;;;5068209;28;20059;-68
2022/04/10 03:14:49;;;;;;;13.57;2.65;;;;;;;;;;5068614;28;20136;-67
2022/04/10 03:17:16;;;;;;;13.95;2.75;;;;;;;;;;5068530;28;20264;-68
2022/04/10 03:19:42;;;;;;;11.93;2.40;;;;;;;;;;5068059;28;20045;-67
2022/04/10 03:22:08;;;;;;;7.85;2.35;;;;;;;;;;5068154;28;20083;-67
2022/04/10 03:24:35;;;;;;;9.23;2.50;;;;;;;;;;5068511;28;20059;-67
2022/04/10 03:27:01;;;;;;;11.82;2.33;;;;;;;;;;5068933;28;20060;-67
2022/04/10 03:29:27;;;;;;;11.10;2.30;;;;;;;;;;5068451;28;20526;-67
2022/04/10 03:31:54;;;;;;;11.07;1.85;;;;;;;;;;5068111;28;20049;-67
2022/04/10 03:34:20;;;;;;;8.73;2.03;;;;;;;;;;5067301;28;20134;-67
2022/04/10 03:36:46;;;;;;;6.70;1.70;;;;;;;;;;5067895;28;20057;-67
2022/04/10 03:39:13;;;;;;;10.45;2.30;;;;;;;;;;5068010;28;20063;-67
2022/04/10 03:41:39;;;;;;;30.02;2.70;;;;;;;;;;5069217;28;20092;-68
2022/04/10 03:44:05;;;;;;;10.88;2.50;;;;;;;;;;5068022;28;20147;-68
2022/04/10 03:46:32;;;;;;;10.32;2.47;;;;;;;;;;5068169;28;20052;-67
2022/04/10 03:48:58;;;;;;;15.43;2.88;;;;;;;;;;5067942;28;20061;-67
2022/04/10 03:51:25;;;;;;;12.30;2.22;;;;;;;;;;5067234;28;20495;-67
2022/04/10 03:53:51;;;;;;;11.02;2.67;;;;;;;;;;5067889;28;20084;-67
2022/04/10 03:56:17;;;;;;;11.02;2.20;;;;;;;;;;5067561;28;20526;-67
2022/04/10 03:58:44;;;;;;;8.68;2.30;;;;;;;;;;5066984;28;20063;-67
2022/04/10 04:01:11;;;;;;;10.30;2.28;;;;;;;;;;5068098;28;20052;-67
2022/04/10 04:03:38;;;;;;;12.63;2.53;;;;;;;;;;5067790;28;20065;-67
2022/04/10 04:06:04;;;;;;;14.88;2.40;;;;;;;;;;5067846;28;20135;-67
2022/04/10 04:08:30;;;;;;;9.43;2.25;;;;;;;;;;5067796;28;20490;-67
2022/04/10 04:10:57;;;;;;;8.10;2.03;;;;;;;;;;5068928;28;20059;-67
2022/04/10 04:13:24;;;;;;;10.25;2.53;;;;;;;;;;5067180;28;20111;-67
2022/04/10 04:15:51;;;;;;;9.40;2.38;;;;;;;;;;5067362;28;20064;-67
2022/04/10 04:18:18;;;;;;;12.20;2.63;;;;;;;;;;5067462;28;20517;-67
2022/04/10 04:20:44;;;;;;;13.93;2.53;;;;;;;;;;5067432;28;20053;-67
2022/04/10 04:23:10;;;;;;;7.75;2.13;;;;;;;;;;5066662;28;20096;-67
2022/04/10 04:25:37;;;;;;;9.70;2.25;;;;;;;;;;5067960;28;20063;-67
2022/04/10 04:28:03;;;;;;;22.00;2.47;;;;;;;;;;5067520;28;20135;-67
2022/04/10 04:30:30;;;;;;;7.68;1.92;;;;;;;;;;5067829;28;20062;-67
2022/04/10 04:32:56;;;;;;;12.30;2.60;;;;;;;;;;5068207;28;20104;-67
2022/04/10 04:35:23;;;;;;;11.98;3.05;;;;;;;;;;5067591;28;20077;-67
2022/04/10 04:37:49;;;;;;;11.32;2.97;;;;;;;;;;5066993;28;20077;-67
2022/04/10 04:40:16;;;;;;;11.25;2.50;;;;;;;;;;5067848;28;20111;-68
2022/04/10 04:42:43;;;;;;;11.95;2.58;;;;;;;;;;5067055;28;20582;-67
2022/04/10 04:45:09;;;;;;;10.57;2.55;;;;;;;;;;5067185;28;20088;-67
2022/04/10 04:47:36;;;;;;;12.63;3.35;;;;;;;;;;5066457;28;20049;-67
2022/04/10 04:50:02;;;;;;;11.48;2.67;;;;;;;;;;5066955;28;20084;-67
2022/04/10 04:52:28;;;;;;;10.45;2.05;;;;;;;;;;5067140;28;20053;-67
2022/04/10 04:54:55;;;;;;;8.50;2.30;;;;;;;;;;5067617;28;20057;-67
2022/04/10 04:57:21;;;;;;;10.93;2.58;;;;;;;;;;5066866;28;20534;-67
2022/04/10 04:59:47;;;;;;;9.52;2.20;;;;;;;;;;5066763;28;20167;-67
2022/04/10 05:02:14;;;;;;;9.70;2.50;;;;;;;;;;5067255;28;20059;-67
2022/04/10 05:04:40;;;;;;;11.32;2.22;;;;;;;;;;5067106;28;20136;-67
2022/04/10 05:07:07;;;;;;;11.63;2.55;;;;;;;;;;5066988;28;20111;-67
2022/04/10 05:09:33;;;;;;;10.20;3.63;;;;;;;;;;5067353;28;20053;-67
2022/04/10 05:11:59;;;;;;;8.40;2.88;;;;;;;;;;5066140;28;20057;-67
2022/04/10 05:14:25;;;;;;;12.82;2.78;;;;;;;;;;5066604;28;20144;-67
2022/04/10 05:16:52;;;;;;;12.27;2.58;;;;;;;;;;5066931;28;20053;-67
2022/04/10 05:19:19;;;;;;;11.80;2.80;;;;;;;;;;5066733;28;20065;-67
2022/04/10 05:21:45;;;;;;;11.65;3.20;;;;;;;;;;5066852;28;20147;-67
2022/04/10 05:24:12;;;;;;;9.23;2.40;;;;;;;;;;5066584;28;20136;-67
2022/04/10 05:26:38;;;;;;;8.50;3.20;;;;;;;;;;5069716;28;20509;-67
2022/04/10 05:29:04;;;;;;;13.32;3.40;;;;;;;;;;5070518;28;20176;-67
2022/04/10 05:31:31;;;;;;;8.93;3.30;;;;;;;;;;5070229;28;20746;-67
2022/04/10 05:33:58;;;;;;;15.88;4.18;;;;;;;;;;5070568;28;20052;-68
2022/04/10 05:36:24;;;;;;;9.73;3.60;;;;;;;;;;5069524;28;20203;-67
2022/04/10 05:38:50;;;;;;;10.80;3.40;;;;;;;;;;5070340;28;20045;-67
2022/04/10 05:41:17;;;;;;;8.73;2.92;;;;;;;;;;5070362;28;20057;-67
2022/04/10 05:43:43;;;;;;;12.07;3.45;;;;;;;;;;5070032;28;20449;-67
2022/04/10 05:46:09;;;;;;;14.10;2.92;;;;;;;;;;5070052;28;20045;-67
2022/04/10 05:48:36;;;;;;;12.07;3.08;;;;;;;;;;5069729;28;20057;-67
2022/04/10 05:51:02;;;;;;;10.25;2.35;;;;;;;;;;5070238;28;20053;-67
2022/04/10 05:53:28;;;;;;;8.07;2.00;;;;;;;;;;5069388;28;20088;-67
2022/04/10 05:55:55;;;;;;;10.75;2.58;;;;;;;;;;5069911;28;20053;-67
2022/04/10 05:58:21;;;;;;;7.10;1.90;;;;;;;;;;5070041;28;20081;-67
2022/04/10 06:00:48;;;;;;;7.90;2.17;;;;;;;;;;5069837;28;20155;-67
2022/04/10 06:03:14;;;;;;;8.18;2.10;;;;;;;;;;5069539;28;20048;-67
2022/04/10 06:05:40;;;;;;;5.28;1.38;;;;;;;;;;5069929;28;20045;-67
2022/04/10 06:08:07;;;;;;;11.10;1.50;;;;;;;;;;5069923;28;20083;-67
2022/04/10 06:10:33;;;;;;;7.57;1.60;;;;;;;;;;5069673;28;20119;-67
2022/04/10 06:13:06;;;;;;;8.65;1.80;;;;;;;;;;5069745;28;20155;-67
2022/04/10 06:15:39;;;;;;;4.03;1.42;;;;;;;;;;5069401;28;20053;-67
2022/04/10 06:18:07;;;;;;;7.45;1.30;;;;;;;;;;5070059;28;20983;-67
2022/04/10 06:20:34;;;;;;;11.10;1.50;;;;;;;;;;5070292;28;20049;-67
2022/04/10 06:23:00;;;;;;;4.72;1.52;;;;;;;;;;5069199;28;20053;-67
2022/04/10 06:25:27;;;;;;;10.35;1.80;;;;;;;;;;5068804;28;20567;-68
2022/04/10 06:27:54;;;;;;;5.55;1.27;;;;;;;;;;5069285;28;20152;-68
2022/04/10 06:30:21;;;;;;;2.95;1.05;;;;;;;;;;5069417;28;20560;-67
2022/04/10 06:32:48;;;;;;;3.85;1.08;;;;;;;;;;5069417;28;20053;-67
2022/04/10 06:35:14;;;;;;;5.32;1.48;;;;;;;;;;5068325;28;20183;-68
2022/04/10 06:37:42;;;;;;;7.65;1.38;;;;;;;;;;5068605;28;20151;-68
2022/04/10 06:40:09;;;;;;;4.28;1.52;;;;;;;;;;5069192;28;20135;-67
2022/04/10 06:42:35;;;;;;;7.25;1.30;;;;;;;;;;5069391;28;20140;-69
2022/04/10 06:45:02;;;;;;;3.08;1.40;;;;;;;;;;5069069;28;20200;-68
2022/04/10 06:47:31;;;;;;;8.43;1.98;;;;;;;;;;5068573;28;20084;-68
2022/04/10 06:49:58;;;;;;;8.07;2.60;;;;;;;;;;5069020;28;20049;-68
2022/04/10 06:52:24;;;;;;;9.45;3.08;;;;;;;;;;5068971;28;20531;-68
2022/04/10 06:54:50;;;;;;;8.43;2.13;;;;;;;;;;5068957;28;20531;-68
2022/04/10 06:57:17;;;;;;;3.28;1.60;;;;;;;;;;5068976;28;20059;-68
2022/04/10 06:59:43;;;;;;;8.50;1.48;;;;;;;;;;5068215;28;20053;-68
2022/04/10 07:02:10;;;;;;;7.75;2.08;;;;;;;;;;5068682;28;20503;-68
2022/04/10 07:04:36;;;;;;;9.63;1.77;;;;;;;;;;5069403;28;20063;-68
2022/04/10 07:07:03;;;;;;;7.38;1.55;;;;;;;;;;5069663;28;20149;-68
2022/04/10 07:09:29;;;;;;;14.10;2.78;;;;;;;;;;5068431;28;20148;-68
2022/04/10 07:11:56;;;;;;;6.28;1.42;;;;;;;;;;5068731;28;20144;-68
2022/04/10 07:14:22;;;;;;;8.95;2.13;;;;;;;;;;5067591;28;20618;-68
2022/04/10 07:16:48;;;;;;;5.90;2.00;;;;;;;;;;5069321;28;20139;-68
2022/04/10 07:19:15;;;;;;;7.00;2.05;;;;;;;;;;5068862;28;20056;-68
2022/04/10 07:24:26;;;;;;;11.25;2.08;;;;;;;;;;5068940;28;20555;-68
2022/04/10 07:26:54;;;;;;;5.95;1.70;;;;;;;;;;5069091;28;20071;-68
2022/04/10 07:29:21;;;;;;;4.70;1.40;;;;;;;;;;5068681;28;20518;-68
2022/04/10 07:31:47;;;;;;;9.45;1.60;;;;;;;;;;5068208;28;20049;-68
2022/04/10 07:34:13;;;;;;;8.77;2.42;;;;;;;;;;5067703;28;20061;-68
2022/04/10 07:36:40;;;;;;;9.15;1.70;;;;;;;;;;5068497;28;20059;-68
2022/04/10 07:39:06;;;;;;;7.88;1.60;;;;;;;;;;5067556;28;20052;-68
2022/04/10 07:41:32;;;;;;;11.05;1.80;;;;;;;;;;5067937;28;20057;-68
2022/04/10 07:43:59;;;;;;;6.75;1.98;;;;;;;;;;5068210;28;20041;-68
2022/04/10 07:49:10;;;;;;;8.35;2.00;;;;;;;;;;5067983;28;20143;-68
2022/04/10 07:51:36;;;;;;;4.95;1.73;;;;;;;;;;5067657;28;20507;-68
2022/04/10 07:54:03;;;;;;;12.27;2.05;;;;;;;;;;5068222;28;20606;-68
2022/04/10 07:56:29;;;;;;;6.10;1.70;;;;;;;;;;5067939;28;20063;-68
2022/04/10 07:58:55;;;;;;;7.45;1.70;;;;;;;;;;5068166;28;20055;-68
2022/04/10 08:01:22;;;;;;;6.28;1.50;;;;;;;;;;5067364;28;20109;-68
2022/04/10 08:03:51;;;;;;;10.18;1.60;;;;;;;;;;5066691;28;20053;-68
2022/04/10 08:06:18;;;;;;;4.80;1.40;;;;;;;;;;5067809;28;20176;-68
2022/04/10 08:08:44;;;;;;;5.65;1.42;;;;;;;;;;5068334;28;20060;-68
2022/04/10 08:11:11;;;;;;;4.07;1.08;;;;;;;;;;5068532;28;20053;-68
2022/04/10 08:13:37;;;;;;;8.13;1.35;;;;;;;;;;5067490;28;20063;-68
2022/04/10 08:16:04;;;;;;;11.00;1.92;;;;;;;;;;5067768;28;20125;-68
2022/04/10 08:18:32;;;;;;;6.03;2.00;;;;;;;;;;5067384;28;20159;-68
2022/04/10 08:20:58;;;;;;;8.32;1.63;;;;;;;;;;5067591;28;20135;-69
2022/04/10 08:23:25;;;;;;;5.68;1.58;;;;;;;;;;5067422;28;20095;-68
2022/04/10 08:25:51;;;;;;;11.57;1.73;;;;;;;;;;5067440;28;21200;-68
2022/04/10 08:28:18;;;;;;;13.68;1.95;;;;;;;;;;5066765;28;20151;-68
2022/04/10 08:30:44;;;;;;;7.50;1.55;;;;;;;;;;5067698;28;20136;-68
2022/04/10 08:33:11;;;;;;;3.35;1.30;;;;;;;;;;5067628;28;20132;-68
2022/04/10 08:35:37;;;;;;;8.70;1.70;;;;;;;;;;5068120;28;20049;-68
2022/04/10 08:38:03;;;;;;;8.45;1.30;;;;;;;;;;5066890;28;20144;-68
2022/04/10 08:40:31;;;;;;;7.35;1.48;;;;;;;;;;5067409;28;20060;-68
2022/04/10 08:43:04;;;;;;;7.80;2.03;;;;;;;;;;5067730;28;20057;-68
2022/04/10 08:45:30;;;;;;;11.40;1.40;;;;;;;;;;5067640;28;20136;-68
2022/04/10 08:47:57;;;;;;;32.22;3.72;;;;;;;;;;5066970;28;20057;-68
2022/04/10 08:50:24;;;;;;;12.25;1.58;;;;;;;;;;5067293;28;20191;-68
2022/04/10 08:52:52;;;;;;;9.18;1.67;;;;;;;;;;5067547;28;20085;-68
2022/04/10 08:55:19;;;;;;;9.48;1.67;;;;;;;;;;5067387;28;20059;-68
2022/04/10 08:57:45;;;;;;;7.70;1.55;;;;;;;;;;5067333;28;20136;-68
2022/04/10 09:00:12;;;;;;;6.70;1.25;;;;;;;;;;5067999;28;20107;-68
2022/04/10 09:02:50;;;;;;;6.38;1.35;;;;;;;;;;5070717;28;20985;-68
2022/04/10 09:05:24;;;;;;;4.30;1.40;;;;;;;;;;5070160;28;20503;-68
2022/04/10 09:08:08;;;;;;;9.63;1.30;;;;;;;;;;5070863;28;20057;-68
2022/04/10 09:10:58;;;;;;;9.10;2.30;;;;;;;;;;5070551;28;20092;-67
2022/04/10 09:13:32;;;;;;;7.00;1.35;;;;;;;;;;5057769;28;20064;-68
2022/04/10 09:16:20;;;;;;;4.10;1.30;;;;;;;;;;5071349;28;20079;-68
2022/04/10 09:18:51;;;;;;;7.35;1.88;;;;;;;;;;5069972;28;20484;-68
2022/04/10 09:21:20;;;;;;;7.70;1.60;;;;;;;;;;5070461;28;20092;-68
2022/04/10 09:23:53;;;;;;;3.70;1.17;;;;;;;;;;5070427;28;20111;-68
2022/04/10 09:26:19;;;;;;;4.80;1.10;;;;;;;;;;5070169;28;20140;-68
2022/04/10 09:28:47;;;;;;;8.50;1.33;;;;;;;;;;5070880;28;20416;-68
2022/04/10 09:31:23;;;;;;;2.85;1.08;;;;;;;;;;5051785;28;20147;-68
2022/04/10 09:33:50;;;;;;;8.65;2.05;;;;;;;;;;5069749;28;20519;-67
2022/04/10 09:36:29;;;;;;;5.45;1.58;;;;;;;;;;5070536;28;20114;-68
2022/04/10 09:38:55;;;;;;;7.15;1.58;;;;;;;;;;5070256;28;20144;-67
2022/04/10 09:41:21;;;;;;;6.60;1.27;;;;;;;;;;5070165;28;20283;-67
2022/04/10 09:43:48;;;;;;;5.43;0.90;;;;;;;;;;5069646;28;20888;-68
2022/04/10 09:46:15;;;;;;;5.43;1.50;;;;;;;;;;5070009;28;20119;-67
2022/04/10 09:48:42;;;;;;;7.05;1.33;;;;;;;;;;5069865;28;20065;-67
2022/04/10 09:51:10;;;;;;;5.82;1.42;;;;;;;;;;5070701;28;20115;-67
2022/04/10 09:53:37;;;;;;;4.95;1.08;;;;;;;;;;5069879;28;20136;-67
2022/04/10 09:56:05;;;;;;;6.22;0.93;;;;;;;;;;5069735;28;20501;-67
2022/04/10 09:58:32;;;;;;;7.72;1.48;;;;;;;;;;5070132;28;20053;-67
2022/04/10 10:00:59;;;;;;;5.50;0.98;;;;;;;;;;5069599;28;20056;-67
2022/04/10 10:03:36;;;;;;;7.05;1.65;;;;;;;;;;5070021;28;20119;-67
2022/04/10 10:06:05;;;;;;;5.15;1.08;;;;;;;;;;5069375;28;20064;-67
2022/04/10 10:08:32;;;;;;;5.65;1.40;;;;;;;;;;5069828;28;20059;-67
2022/04/10 10:11:00;;;;;;;5.97;1.10;;;;;;;;;;5069715;28;20140;-67
2022/04/10 10:13:27;;;;;;;2.80;0.82;;;;;;;;;;5068427;28;20064;-67
2022/04/10 10:15:56;;;;;;;4.93;1.10;;;;;;;;;;5069666;28;20061;-67
2022/04/10 10:18:24;;;;;;;6.97;1.00;;;;;;;;;;5069273;28;20053;-68
2022/04/10 10:20:50;;;;;;;7.18;1.60;;;;;;;;;;5069756;28;20053;-67
2022/04/10 10:23:19;;;;;;;3.10;1.02;;;;;;;;;;5069333;28;20143;-67
2022/04/10 10:25:52;;;;;;;3.70;1.00;;;;;;;;;;5069475;28;20536;-67
2022/04/10 10:28:22;;;;;;;4.93;1.45;;;;;;;;;;5068738;28;20507;-67
2022/04/10 10:31:07;;;;;;;2.42;0.98;;;;;;;;;;5069560;28;20515;-67
2022/04/10 10:33:34;;;;;;;4.25;0.95;;;;;;;;;;5068622;28;20049;-67
2022/04/10 10:36:01;;;;;;;6.00;1.20;;;;;;;;;;5070489;28;20057;-67
2022/04/10 10:38:29;;;;;;;5.55;1.10;;;;;;;;;;5069093;28;20148;-67
2022/04/10 10:41:12;;;;;;;5.07;0.95;;;;;;;;;;5069279;28;20052;-67
2022/04/10 10:43:38;;;;;;;;;;;;;;;;;;5069638;28;20076;-67
2022/04/10 10:46:32;;;;;;;4.28;1.10;;;;;;;;;;5067751;28;43035;-67
2022/04/10 10:49:11;;;;;;;4.45;1.20;;;;;;;;;;5059131;28;20060;-67
2022/04/10 10:51:38;;;;;;;;;;;;;;;;;;5069212;28;20057;-67
2022/04/10 10:54:10;;;;;;;4.82;1.10;;;;;;;;;;5068070;28;43024;-67
2022/04/10 10:56:37;;;;;;;8.35;1.88;;;;;;;;;;5068934;28;20148;-67
2022/04/10 10:59:26;;;;;;;4.53;0.90;;;;;;;;;;5068723;28;20056;-67
2022/04/10 11:01:54;;;;;;;4.72;1.17;;;;;;;;;;5068953;28;20059;-67
2022/04/10 11:04:21;;;;;;;9.07;1.30;;;;;;;;;;5068272;28;20120;-67
2022/04/10 11:06:48;;;;;;;7.85;1.83;;;;;;;;;;5069065;28;20052;-67
2022/04/10 11:09:18;;;;;;;7.72;1.13;;;;;;;;;;5068615;28;20088;-67
2022/04/10 11:11:44;;;;;;;5.05;1.90;;;;;;;;;;5068991;28;20481;-67
2022/04/10 11:14:32;;;;;;;7.85;2.35;;;;;;;;;;5067804;28;20451;-67
2022/04/10 11:17:13;;;;;;;6.07;1.40;;;;;;;;;;5068394;28;20147;-67
2022/04/10 11:19:40;;;;;;;3.47;0.90;;;;;;;;;;5068378;28;20055;-67
2022/04/10 11:22:07;;;;;;;7.15;1.40;;;;;;;;;;5068722;28;20057;-67
2022/04/10 11:24:34;;;;;;;6.15;2.00;;;;;;;;;;5067400;28;20083;-67
2022/04/10 11:27:03;;;;;;;4.90;0.90;;;;;;;;;;5068418;28;20072;-67
2022/04/10 11:29:29;;;;;;;;;;;;;;;;;;5068195;28;20173;-67
2022/04/10 11:32:02;;;;;;;8.98;1.13;;;;;;;;;;5067919;28;43631;-67
2022/04/10 11:34:29;;;;;;;5.90;1.27;;;;;;;;;;5068300;28;20137;-67
2022/04/10 11:36:56;;;;;;;4.43;1.30;;;;;;;;;;5068582;28;20148;-67
2022/04/10 11:39:24;;;;;;;7.75;1.20;;;;;;;;;;5068196;28;20091;-67
2022/04/10 11:41:50;;;;;;;5.55;1.10;;;;;;;;;;5068133;28;20811;-67
2022/04/10 11:44:17;;;;;;;5.03;1.00;;;;;;;;;;5068099;28;20642;-67
2022/04/10 11:46:48;;;;;;;3.97;1.02;;;;;;;;;;5068042;28;20148;-67
2022/04/10 11:49:16;;;;;;;6.28;1.13;;;;;;;;;;5067338;28;20447;-67
2022/04/10 11:51:49;;;;;;;3.10;0.85;;;;;;;;;;5067874;28;20144;-67
2022/04/10 11:54:26;;;;;;;6.03;1.20;;;;;;;;;;5068166;28;20471;-67
2022/04/10 11:56:52;;;;;;;4.38;0.80;;;;;;;;;;5068351;28;20067;-67
2022/04/10 11:59:21;;;;;;;3.83;0.88;;;;;;;;;;5067726;28;20104;-67
2022/04/10 12:01:48;;;;;;;3.60;1.20;;;;;;;;;;5068338;28;20059;-67
2022/04/10 12:04:16;;;;;;;2.80;0.93;;;;;;;;;;5067071;28;20832;-67
2022/04/10 12:06:42;;;;;;;4.97;1.20;;;;;;;;;;5067707;28;20053;-67
2022/04/10 12:09:08;;;;;;;6.05;1.25;;;;;;;;;;5068258;28;20059;-67
2022/04/10 12:11:42;;;;;;;3.47;1.20;;;;;;;;;;5068152;28;20201;-67
2022/04/10 12:14:21;;;;;;;4.35;1.02;;;;;;;;;;5066796;28;20152;-67
2022/04/10 12:16:47;;;;;;;3.58;0.80;;;;;;;;;;5068206;28;20570;-67
2022/04/10 12:19:14;;;;;;;2.47;0.75;;;;;;;;;;5067002;28;20061;-68
2022/04/10 12:21:47;;;;;;;5.65;0.90;;;;;;;;;;5067823;28;20141;-68
2022/04/10 12:24:20;;;;;;;2.65;0.70;;;;;;;;;;5067649;28;20123;-67
2022/04/10 12:26:46;;;;;;;5.03;0.98;;;;;;;;;;5067988;28;20144;-68
2022/04/10 12:29:13;;;;;;;6.22;1.55;;;;;;;;;;5067402;28;20048;-69
2022/04/10 12:31:43;;;;;;;4.63;1.30;;;;;;;;;;5067432;28;20144;-68
2022/04/10 12:34:10;;;;;;;7.28;1.20;;;;;;;;;;5067631;28;20533;-67
2022/04/10 12:36:49;;;;;;;3.95;0.88;;;;;;;;;;5067019;28;20060;-67
2022/04/10 12:39:28;;;;;;;3.60;1.10;;;;;;;;;;5066370;28;20084;-67
2022/04/10 12:42:03;;;;;;;3.65;0.95;;;;;;;;;;5066991;28;20139;-66
2022/04/10 12:44:30;;;;;;;2.92;0.90;;;;;;;;;;5067192;28;20055;-66
2022/04/10 12:46:57;;;;;;;4.32;1.15;;;;;;;;;;5067094;28;20601;-66
2022/04/10 12:49:24;;;;;;;4.55;0.82;;;;;;;;;;5066438;28;20144;-66
2022/04/10 12:51:52;;;;;;;4.65;0.80;;;;;;;;;;5067352;28;20152;-66
2022/04/10 12:54:31;;;;;;;3.30;0.85;;;;;;;;;;5067410;28;20156;-67
2022/04/10 12:56:57;;;;;;;9.27;1.17;;;;;;;;;;5067581;28;20500;-67
2022/04/10 12:59:53;;;;;;;3.67;0.70;;;;;;;;;;5066948;28;20182;-67
2022/04/10 13:02:24;;;;;;;4.20;0.90;;;;;;;;;;5045059;28;20128;-67
2022/04/10 13:04:57;;;;;;;2.85;0.90;;;;;;;;;;5066182;28;20152;-67
2022/04/10 13:07:24;;;;;;;3.22;1.00;;;;;;;;;;5066512;28;20049;-67
2022/04/10 13:10:06;;;;;;;6.28;1.55;;;;;;;;;;5066659;28;20049;-67
2022/04/10 13:12:39;;;;;;;1.92;0.57;;;;;;;;;;5067091;28;20064;-67
2022/04/10 13:15:06;;;;;;;6.10;1.20;;;;;;;;;;5066504;28;20144;-67
2022/04/10 13:17:35;;;;;;;5.28;0.90;;;;;;;;;;5067383;28;20059;-69
2022/04/10 13:20:06;;;;;;;2.47;0.70;;;;;;;;;;5066935;28;20533;-67
2022/04/10 13:22:33;;;;;;;3.15;0.80;;;;;;;;;;5067311;28;20179;-67
2022/04/10 13:24:59;;;;;;;3.67;0.82;;;;;;;;;;5066971;28;20091;-67
2022/04/10 13:27:25;;;;;;;4.63;0.90;;;;;;;;;;5066887;28;20140;-67
2022/04/10 13:29:52;;;;;;;4.10;1.10;;;;;;;;;;5066055;28;20102;-67
2022/04/10 13:32:18;;;;;;;3.72;1.20;;;;;;;;;;5066253;28;20148;-68
2022/04/10 13:34:45;;;;;;;6.97;0.80;;;;;;;;;;5066103;28;20151;-67
2022/04/10 13:37:11;;;;;;;2.75;0.70;;;;;;;;;;5066851;28;20063;-67
2022/04/10 13:39:38;;;;;;;3.72;0.95;;;;;;;;;;5067282;28;20137;-67
2022/04/10 13:42:05;;;;;;;3.88;0.95;;;;;;;;;;5066640;28;20195;-69
2022/04/10 13:44:31;;;;;;;2.80;0.85;;;;;;;;;;5066475;28;20053;-68
2022/04/10 13:46:57;;;;;;;3.92;1.15;;;;;;;;;;5068432;28;20053;-68
2022/04/10 13:49:24;;;;;;;3.70;0.95;;;;;;;;;;5069532;28;20145;-68
2022/04/10 13:51:50;;;;;;;3.50;0.90;;;;;;;;;;5070107;28;20057;-68
2022/04/10 13:54:17;;;;;;;3.45;0.60;;;;;;;;;;5069318;28;20053;-68
2022/04/10 13:56:43;;;;;;;6.15;1.20;;;;;;;;;;5069510;28;20476;-68
2022/04/10 13:59:09;;;;;;;4.22;0.90;;;;;;;;;;5069724;28;20826;-68
2022/04/10 14:01:36;;;;;;;2.38;0.88;;;;;;;;;;5070189;28;20049;-68
2022/04/10 14:04:03;;;;;;;2.95;0.63;;;;;;;;;;5069950;28;20126;-68
2022/04/10 14:06:30;;;;;;;2.55;0.70;;;;;;;;;;5069546;28;20045;-68
2022/04/10 14:08:58;;;;;;;2.70;0.70;;;;;;;;;;5069661;28;20055;-68
2022/04/10 14:11:27;;;;;;;3.13;0.73;;;;;;;;;;5068639;28;20089;-68
2022/04/10 14:13:54;;;;;;;3.60;0.93;;;;;;;;;;5069354;28;20063;-68
2022/04/10 14:16:20;;;;;;;4.75;1.00;;;;;;;;;;5069527;28;19924;-68
2022/04/10 14:18:46;;;;;;;3.95;0.90;;;;;;;;;;5069051;28;20045;-68
2022/04/10 14:21:13;;;;;;;2.22;0.70;;;;;;;;;;5069411;28;20056;-68
2022/04/10 14:23:40;;;;;;;3.65;1.10;;;;;;;;;;5069493;28;20156;-68
2022/04/10 14:26:07;;;;;;;5.88;1.50;;;;;;;;;;5068890;28;20131;-68
2022/04/10 14:28:37;;;;;;;5.30;1.10;;;;;;;;;;5069262;28;20049;-68
2022/04/10 14:31:04;;;;;;;1.10;0.70;;;;;;;;;;5069257;28;20063;-68
2022/04/10 14:33:32;;;;;;;8.25;1.10;;;;;;;;;;5069167;28;20103;-68
2022/04/10 14:35:59;;;;;;;3.97;1.10;;;;;;;;;;5069878;28;20084;-69
2022/04/10 14:38:25;;;;;;;4.35;0.70;;;;;;;;;;5068981;28;20056;-69
2022/04/10 14:40:51;;;;;;;6.20;1.23;;;;;;;;;;5069102;28;20059;-68
2022/04/10 14:43:18;;;;;;;4.18;0.85;;;;;;;;;;5067150;28;20049;-69
2022/04/10 14:45:45;;;;;;;3.47;0.88;;;;;;;;;;5069379;28;20510;-69
2022/04/10 14:48:12;;;;;;;1.88;0.63;;;;;;;;;;5069070;28;20509;-69
2022/04/10 14:50:39;;;;;;;4.53;0.90;;;;;;;;;;5069388;28;20053;-68